createdAt,value
2022-11-24T04:19:55.786Z,98040.72
2022-11-24T04:23:05.921Z,98050.50
2022-11-24T04:26:18.038Z,98041.41
2022-11-24T04:29:27.776Z,98040.84
2022-11-24T04:32:37.962Z,98045.28
2022-11-24T04:35:48.902Z,98052.63
2022-11-24T04:39:23.424Z,98058.75
2022-11-24T04:42:28.435Z,98055.19
2022-11-24T04:45:38.251Z,98059.16
2022-11-24T04:48:47.961Z,98050.94
2022-11-24T04:51:59.366Z,98049.06
2022-11-24T04:55:09.598Z,98042.06
2022-11-24T04:58:19.416Z,98027.41
2022-11-24T05:01:29.401Z,98040.94
2022-11-24T05:04:39.183Z,98060.06
2022-11-24T05:07:50.367Z,98054.06
2022-11-24T05:11:05.040Z,98072.50
2022-11-24T05:14:14.681Z,98079.16
2022-11-24T05:17:24.367Z,98086.16
2022-11-24T05:20:34.264Z,98094.28
2022-11-24T05:23:45.805Z,98094.06
2022-11-24T05:26:55.463Z,98102.50
2022-11-24T05:30:05.817Z,98118.53
2022-11-24T05:33:18.971Z,98125.66
2022-11-24T05:36:39.772Z,98120.75
2022-11-24T05:39:50.697Z,98133.53
2022-11-24T05:43:00.551Z,98140.56
2022-11-24T05:46:10.339Z,98143.56
2022-11-24T05:49:20.029Z,98150.13
2022-11-24T05:52:29.751Z,98150.81
2022-11-24T05:55:41.767Z,98156.16
2022-11-24T05:58:51.396Z,98149.00
2022-11-24T07:49:07.928Z,98260.41
2022-11-24T07:52:17.616Z,98261.47
2022-11-24T07:55:27.315Z,98258.13
2022-11-24T07:58:38.336Z,98261.59
2022-11-24T08:01:48.212Z,98266.59
2022-11-24T08:04:59.162Z,98270.69
2022-11-24T08:08:08.800Z,98290.59
2022-11-24T08:11:19.189Z,98289.06
2022-11-24T08:14:29.037Z,98292.63
2022-11-24T08:17:38.776Z,98291.53
2022-11-24T08:20:50.907Z,98297.34
2022-11-24T08:24:00.636Z,98304.13
2022-11-24T08:27:10.240Z,98312.81
2022-11-24T08:30:20.644Z,98306.41
2022-11-24T08:33:30.500Z,98301.31
2022-11-24T08:36:41.404Z,98304.31
2022-11-24T08:39:52.359Z,98309.34
2022-11-24T08:43:02.056Z,98309.03
2022-11-24T08:46:13.638Z,98322.50
2022-11-24T08:49:23.508Z,98318.03
2022-11-24T08:52:34.506Z,98324.72
2022-11-24T08:55:44.173Z,98338.97
2022-11-24T08:58:54.343Z,98332.41
2022-11-24T09:02:04.142Z,98332.06
2022-11-24T09:05:43.561Z,98336.53
2022-11-24T09:08:45.153Z,98352.56
2022-11-24T09:11:54.917Z,98359.25
2022-11-24T09:15:04.697Z,98363.50
2022-11-24T09:18:15.382Z,98370.63
2022-11-24T09:21:25.458Z,98361.72
2022-11-24T09:24:36.440Z,98351.63
2022-11-24T09:27:46.140Z,98355.97
2022-11-24T09:30:55.866Z,98361.28
2022-11-24T09:34:07.090Z,98358.19
2022-11-24T09:37:16.704Z,98369.78
2022-11-24T09:40:27.943Z,98373.91
2022-11-24T09:43:42.175Z,98385.75
2022-11-24T09:46:59.851Z,98387.13
2022-11-24T09:50:16.039Z,98387.09
2022-11-24T09:53:33.179Z,98381.72
2022-11-24T09:56:44.790Z,98386.81
2022-11-24T10:00:00.356Z,98394.25
2022-11-24T10:03:18.109Z,98403.84
2022-11-24T10:06:30.551Z,98395.34
2022-11-24T10:09:53.871Z,98415.94
2022-11-24T10:13:19.886Z,98411.16
2022-11-24T10:16:43.459Z,98402.25
2022-11-24T10:20:00.186Z,98413.50
2022-11-24T10:23:26.837Z,98404.56
2022-11-24T10:26:38.480Z,98399.69
2022-11-24T10:29:52.948Z,98399.59
2022-11-24T10:33:07.347Z,98406.72
2022-11-24T10:36:24.564Z,98423.00
2022-11-24T10:39:40.379Z,98417.69
2022-11-24T10:42:51.497Z,98415.25
2022-11-24T10:46:12.309Z,98416.88
2022-11-24T10:49:27.967Z,98423.63
2022-11-24T10:52:42.111Z,98417.81
2022-11-24T10:56:00.308Z,98420.63
2022-11-24T10:59:23.307Z,98414.94
2022-11-24T11:02:37.900Z,98419.38
2022-11-24T11:05:51.958Z,98428.91
2022-11-24T11:09:19.421Z,98412.13
2022-11-24T11:12:46.167Z,98423.88
2022-11-24T11:15:56.162Z,98424.91
2022-11-24T11:19:49.484Z,98424.66
2022-11-24T11:23:03.533Z,98431.63
2022-11-24T11:26:31.032Z,98441.03
2022-11-24T11:36:57.049Z,98436.69
2022-11-24T11:40:14.087Z,98454.25
2022-11-24T11:43:29.791Z,98443.81
2022-11-24T11:46:39.444Z,98453.25
2022-11-24T11:49:50.311Z,98443.09
2022-11-24T11:53:10.477Z,98464.25
2022-11-24T11:56:26.013Z,98468.50
2022-11-24T11:59:47.821Z,98458.78
2022-11-24T12:03:26.745Z,98472.91
2022-11-24T12:06:50.690Z,98472.47
2022-11-24T12:10:08.731Z,98476.28
2022-11-24T12:13:38.284Z,98486.97
2022-11-24T12:16:58.340Z,98485.41
2022-11-24T12:20:24.534Z,98491.13
2022-11-24T12:23:47.043Z,98479.25
2022-11-24T12:27:02.261Z,98484.31
2022-11-24T12:30:15.167Z,98493.31
2022-11-24T12:33:39.789Z,98496.06
2022-11-24T12:37:07.654Z,98508.34
2022-11-24T12:40:29.233Z,98506.19
2022-11-24T12:43:42.669Z,98496.94
2022-11-24T12:47:00.349Z,98500.03
2022-11-24T12:50:13.672Z,98498.63
2022-11-24T12:53:26.506Z,98499.44
2022-11-24T12:56:43.484Z,98499.44
2022-11-24T13:00:02.705Z,98511.59
2022-11-24T13:03:24.921Z,98507.88
2022-11-24T13:14:05.721Z,98521.63
2022-11-24T13:21:00.747Z,98529.78
2022-11-24T13:24:26.671Z,98518.25
2022-11-24T13:27:43.802Z,98517.72
2022-11-24T13:31:08.338Z,98521.50
2022-11-24T13:34:45.689Z,98520.81
2022-11-24T13:37:56.889Z,98527.38
2022-11-24T13:41:27.653Z,98531.50
2022-11-24T13:44:49.436Z,98534.00
2022-11-24T13:47:59.223Z,98534.69
2022-11-24T13:51:19.027Z,98530.34
2022-11-24T13:54:30.089Z,98523.31
2022-11-24T13:57:41.494Z,98511.03
2022-11-24T14:01:05.954Z,98512.38
2022-11-24T14:04:36.266Z,98521.00
2022-11-24T14:07:48.189Z,98524.94
2022-11-24T14:11:01.634Z,98522.00
2022-11-24T14:14:17.611Z,98521.31
2022-11-24T14:17:31.302Z,98535.72
2022-11-24T14:20:40.967Z,98539.16
2022-11-24T14:23:53.072Z,98537.81
2022-11-24T14:27:04.130Z,98528.22
2022-11-24T14:30:21.524Z,98528.69
2022-11-24T14:33:31.226Z,98529.56
2022-11-24T14:36:41.271Z,98524.44
2022-11-24T14:39:51.076Z,98534.00
2022-11-24T14:43:02.093Z,98531.13
2022-11-24T14:46:19.761Z,98532.19
2022-11-24T14:49:29.783Z,98529.28
2022-11-24T14:52:47.000Z,98537.63
2022-11-24T14:56:09.571Z,98538.06
2022-11-24T14:59:24.299Z,98536.38
2022-11-24T15:02:41.263Z,98542.84
2022-11-24T15:05:53.569Z,98547.25
2022-11-24T15:09:03.382Z,98552.22
2022-11-24T15:12:28.650Z,98551.47
2022-11-24T15:15:40.609Z,98543.81
2022-11-24T15:18:58.111Z,98543.91
2022-11-24T15:22:34.843Z,98552.41
2022-11-24T15:26:34.210Z,98549.41
2022-11-24T15:29:48.123Z,98553.97
2022-11-24T15:33:00.273Z,98559.25
2022-11-24T15:36:11.587Z,98568.47
2022-11-24T15:39:21.246Z,98570.19
2022-11-24T15:42:30.977Z,98572.38
2022-11-24T15:45:40.584Z,98571.63
2022-11-24T15:48:52.693Z,98572.66
2022-11-24T15:52:02.378Z,98586.84
2022-11-24T15:55:18.392Z,98593.13
2022-11-24T15:58:28.195Z,98599.22
2022-11-24T16:01:38.164Z,98593.88
2022-11-24T16:04:50.760Z,98603.03
2022-11-24T16:08:00.461Z,98605.31
2022-11-24T16:11:10.268Z,98600.03
2022-11-24T16:14:20.005Z,98593.56
2022-11-24T16:17:29.868Z,98600.63
2022-11-24T16:20:40.938Z,98605.22
2022-11-24T16:23:50.671Z,98608.00
2022-11-24T16:27:00.503Z,98606.16
2022-11-24T16:30:13.064Z,98606.38
2022-11-24T16:33:22.752Z,98610.19
2022-11-24T16:36:33.742Z,98611.78
2022-11-24T16:39:49.693Z,98608.47
2022-11-24T16:42:59.759Z,98621.91
2022-11-24T16:46:18.817Z,98620.34
2022-11-24T16:49:28.748Z,98621.25
2022-11-24T16:52:43.434Z,98624.00
2022-11-24T16:55:58.235Z,98616.00
2022-11-24T16:59:07.962Z,98615.19
2022-11-24T17:02:18.103Z,98628.09
2022-11-24T17:05:27.937Z,98621.59
2022-11-24T17:08:42.450Z,98624.94
2022-11-24T17:11:52.410Z,98620.78
2022-11-24T17:15:31.053Z,98623.16
2022-11-24T17:18:33.996Z,98621.53
2022-11-24T17:21:45.200Z,98625.16
2022-11-24T17:24:57.507Z,98627.56
2022-11-24T17:28:08.605Z,98624.66
2022-11-24T17:31:23.253Z,98623.28
2022-11-24T17:34:34.869Z,98626.31
2022-11-24T17:37:46.248Z,98623.19
2022-11-24T17:40:59.115Z,98620.38
2022-11-24T17:44:11.067Z,98626.53
2022-11-24T17:47:22.235Z,98628.91
2022-11-24T17:50:33.415Z,98631.44
2022-11-24T17:53:46.442Z,98636.25
2022-11-24T17:56:58.991Z,98639.56
2022-11-24T18:00:10.936Z,98644.03
2022-11-24T18:03:29.233Z,98645.53
2022-11-24T18:06:40.728Z,98656.13
2022-11-24T18:09:52.091Z,98654.66
2022-11-24T18:13:03.531Z,98650.03
2022-11-24T18:16:13.745Z,98648.22
2022-11-24T18:19:23.804Z,98643.59
2022-11-24T18:23:06.259Z,98641.03
2022-11-24T18:26:10.516Z,98639.25
2022-11-24T18:29:23.429Z,98641.34
2022-11-24T18:32:34.719Z,98647.63
2022-11-24T18:35:46.698Z,98636.84
2022-11-24T18:38:58.707Z,98632.25
2022-11-24T18:42:10.677Z,98621.47
2022-11-24T18:45:23.440Z,98625.78
2022-11-24T18:48:35.199Z,98624.78
2022-11-24T18:51:46.601Z,98622.53
2022-11-24T18:55:04.356Z,98625.50
2022-11-24T18:58:16.186Z,98627.31
2022-11-24T19:01:30.344Z,98629.66
2022-11-24T19:04:41.908Z,98628.03
2022-11-24T19:07:53.211Z,98622.75
2022-11-24T19:11:04.799Z,98622.16
2022-11-24T19:14:18.606Z,98628.63
2022-11-24T19:17:31.409Z,98619.50
2022-11-24T19:20:42.611Z,98621.28
2022-11-24T19:23:53.947Z,98621.28
2022-11-24T19:27:05.460Z,98617.69
2022-11-24T19:30:17.494Z,98609.91
2022-11-24T19:33:30.355Z,98625.75
2022-11-24T19:36:43.564Z,98629.31
2022-11-24T19:39:56.925Z,98629.78
2022-11-24T19:43:08.465Z,98633.53
2022-11-24T19:46:20.609Z,98638.31
2022-11-24T19:49:33.201Z,98635.78
2022-11-24T19:52:44.844Z,98634.72
2022-11-24T19:55:56.139Z,98638.88
2022-11-24T19:59:08.012Z,98642.47
2022-11-24T20:02:19.439Z,98635.31
2022-11-24T20:05:33.260Z,98630.47
2022-11-24T20:08:45.000Z,98642.28
2022-11-24T20:11:56.147Z,98645.06
2022-11-24T20:15:08.416Z,98646.56
2022-11-24T20:18:20.348Z,98646.84
2022-11-24T20:21:33.912Z,98641.72
2022-11-24T20:24:45.572Z,98644.38
2022-11-24T20:27:56.752Z,98645.88
2022-11-24T20:31:10.725Z,98641.81
2022-11-24T20:34:22.764Z,98644.94
2022-11-24T20:37:35.193Z,98652.22
2022-11-24T20:40:46.472Z,98643.69
2022-11-24T20:44:00.970Z,98645.47
2022-11-24T20:47:12.560Z,98645.88
2022-11-24T20:50:23.248Z,98650.53
2022-11-24T20:53:36.218Z,98649.06
